Terminal Aerodrome Forecast
Issued by NWS

Home | Current Version | Previous Version | Text Only | Print | Product List | Glossary On
Versions: 1 2 3 4 5 6 7 8 9 10 11 12 13 14 15 16 17
000
FTUS41 KRLX 211100
TAFCKB
TAF
KCKB 211129Z 2112/2212 00000KT P6SM SKC
     FM211700 24007KT P6SM BKN200
     FM221000 22004KT P6SM BKN040=

USA.gov is the U.S. government's official web portal to all federal, state and local government web resources and services.